Time;durP1;ratioP1;P1;durP2;ratioP2;P2;SDS_P1;SDS_P2;PMS_P1;PMS_P2;Temp;Humidity;BMP_temperature;BMP_pressure;BME280_temperature;BME280_humidity;BME280_pressure;Samples;Min_cycle;Max_cycle;Signal;HPM_P1;HPM_P2
2023/06/07 00:02:22;;;;;;;19.05;9.38;;;;;;;15.99;100.00;101916.94;5245885;28;20025;-69
2023/06/07 00:04:53;;;;;;;19.67;8.98;;;;;;;15.99;100.00;101922.34;5245509;28;20025;-69
2023/06/07 00:07:23;;;;;;;18.88;9.50;;;;;;;15.99;100.00;101925.06;5245841;28;20024;-69
2023/06/07 00:09:53;;;;;;;19.33;9.32;;;;;;;15.96;100.00;101921.84;5245891;28;20032;-69
2023/06/07 00:12:24;;;;;;;21.77;10.15;;;;;;;15.94;100.00;101922.03;5219633;28;20036;-69
2023/06/07 00:14:55;;;;;;;24.73;10.10;;;;;;;15.93;100.00;101924.91;5241344;28;20028;-69
2023/06/07 00:17:27;;;;;;;24.23;10.00;;;;;;;15.91;100.00;101924.22;5245518;28;20158;-70
2023/06/07 00:19:58;;;;;;;20.83;10.23;;;;;;;15.90;100.00;101926.09;5246016;28;20028;-69
2023/06/07 00:22:29;;;;;;;20.35;10.35;;;;;;;15.90;100.00;101926.09;5230675;28;20024;-69
2023/06/07 00:25:00;;;;;;;21.00;10.07;;;;;;;15.89;100.00;101926.28;5230989;28;20394;-70
2023/06/07 00:27:31;;;;;;;20.38;11.25;;;;;;;15.89;100.00;101929.00;5245247;28;20032;-70
2023/06/07 00:30:03;;;;;;;25.33;9.95;;;;;;;15.88;100.00;101920.03;5245951;28;20212;-70
2023/06/07 00:32:34;;;;;;;24.67;10.75;;;;;;;15.88;100.00;101921.91;5245709;28;20032;-69
2023/06/07 00:35:07;;;;;;;24.95;10.30;;;;;;;15.86;100.00;101926.63;5245738;28;20016;-70
2023/06/07 00:37:38;;;;;;;28.80;11.35;;;;;;;15.83;100.00;101924.28;5241374;28;20025;-69
2023/06/07 00:40:09;;;;;;;24.15;10.98;;;;;;;15.79;100.00;101931.91;5217703;28;20035;-70
2023/06/07 00:42:39;;;;;;;25.48;10.40;;;;;;;15.73;100.00;101928.03;5245457;28;20441;-70
2023/06/07 00:45:10;;;;;;;20.95;9.70;;;;;;;15.71;100.00;101923.78;5227906;28;20032;-69
2023/06/07 00:47:40;;;;;;;22.13;10.48;;;;;;;15.69;100.00;101921.28;5244801;28;20047;-69
2023/06/07 00:50:11;;;;;;;24.75;11.07;;;;;;;15.65;100.00;101921.78;5245137;28;20024;-69
2023/06/07 00:52:42;;;;;;;21.08;9.90;;;;;;;15.65;100.00;101922.63;5245144;28;20028;-69
2023/06/07 00:55:13;;;;;;;18.70;9.68;;;;;;;15.64;100.00;101925.53;5245329;28;20024;-69
2023/06/07 00:57:43;;;;;;;25.85;9.95;;;;;;;15.58;100.00;101924.31;5244746;28;20028;-69
2023/06/07 01:00:15;;;;;;;23.50;9.93;;;;;;;15.54;100.00;101918.41;5245300;28;20398;-69
2023/06/07 01:02:46;;;;;;;19.55;10.32;;;;;;;15.51;100.00;101923.31;5245692;28;20025;-69
2023/06/07 01:05:17;;;;;;;29.98;11.73;;;;;;;15.46;100.00;101921.16;5245635;28;20024;-69
2023/06/07 01:07:48;;;;;;;25.77;10.68;;;;;;;15.40;100.00;101927.22;5245328;28;20024;-70
2023/06/07 01:10:19;;;;;;;21.33;11.02;;;;;;;15.37;100.00;101919.47;5245306;28;20426;-70
2023/06/07 01:12:54;;;;;;;26.50;10.45;;;;;;;15.33;100.00;101920.81;5245369;28;20103;-70
2023/06/07 01:15:25;;;;;;;24.98;10.48;;;;;;;15.28;100.00;101924.03;5245611;28;20054;-70
2023/06/07 01:17:57;;;;;;;22.77;11.30;;;;;;;15.23;100.00;101929.13;5244013;28;20052;-70
2023/06/07 01:20:29;;;;;;;25.58;11.15;;;;;;;15.20;100.00;101917.78;5241420;28;20096;-70
2023/06/07 01:23:04;;;;;;;24.67;10.40;;;;;;;15.18;100.00;101909.03;5237702;28;20075;-70
2023/06/07 01:25:34;;;;;;;24.63;10.57;;;;;;;15.10;100.00;101909.84;5235438;28;20094;-69
2023/06/07 01:28:06;;;;;;;17.67;10.20;;;;;;;15.06;100.00;101913.06;5244491;28;20465;-69
2023/06/07 01:30:36;;;;;;;21.60;10.15;;;;;;;15.01;100.00;101914.44;5245061;28;20505;-69
2023/06/07 01:33:07;;;;;;;29.02;12.10;;;;;;;14.96;100.00;101914.09;5244696;28;20059;-70
2023/06/07 01:35:39;;;;;;;24.45;11.60;;;;;;;14.91;100.00;101910.19;5244470;28;20085;-70
2023/06/07 01:38:10;;;;;;;30.27;11.43;;;;;;;14.90;100.00;101913.91;5244388;28;20032;-70
2023/06/07 01:40:44;;;;;;;21.05;10.20;;;;;;;14.85;100.00;101917.13;5244835;28;20077;-69
2023/06/07 01:43:16;;;;;;;25.75;10.98;;;;;;;14.84;100.00;101915.44;5244969;28;20111;-70
2023/06/07 01:45:48;;;;;;;22.05;11.38;;;;;;;14.83;100.00;101913.75;5244149;28;20028;-70
2023/06/07 01:48:19;;;;;;;22.92;11.65;;;;;;;14.81;100.00;101915.78;5244229;28;20029;-69
2023/06/07 01:50:50;;;;;;;31.35;11.80;;;;;;;14.76;100.00;101908.19;5226777;28;20016;-70
2023/06/07 01:53:20;;;;;;;29.23;11.63;;;;;;;14.72;100.00;101909.53;5244634;28;20050;-69
2023/06/07 01:56:02;;;;;;;20.85;10.77;;;;;;;14.68;100.00;101910.88;5244135;28;20025;-69
2023/06/07 01:58:40;;;;;;;24.60;11.32;;;;;;;14.68;100.00;101910.88;5244331;28;20457;-69
2023/06/07 02:01:35;;;;;;;24.77;10.38;;;;;;;14.68;100.00;101910.88;5244524;28;20016;-69
2023/06/07 02:04:11;;;;;;;25.85;10.13;;;;;;;14.67;100.00;101903.78;5244747;28;20662;-69
2023/06/07 02:06:45;;;;;;;27.08;10.40;;;;;;;14.65;100.00;101907.66;5241826;28;20031;-69
2023/06/07 02:09:22;;;;;;;29.55;11.10;;;;;;;14.63;100.00;101907.84;5232856;28;20028;-69
2023/06/07 02:11:53;;;;;;;20.98;11.23;;;;;;;14.63;100.00;101910.53;5244282;28;20027;-69
2023/06/07 02:14:26;;;;;;;22.25;10.93;;;;;;;14.62;100.00;101910.72;5244573;28;20027;-69
2023/06/07 02:16:58;;;;;;;22.75;11.00;;;;;;;14.63;100.00;101912.38;5243683;28;20024;-69
2023/06/07 02:19:29;;;;;;;23.77;10.50;;;;;;;14.61;100.00;101904.47;5244232;28;20078;-69
2023/06/07 02:22:00;;;;;;;28.02;10.18;;;;;;;14.60;100.00;101904.63;5233067;28;20650;-70
2023/06/07 02:24:30;;;;;;;25.80;10.73;;;;;;;14.60;100.00;101905.44;5239169;28;20024;-70
2023/06/07 02:27:02;;;;;;;23.23;10.50;;;;;;;14.59;100.00;101900.22;5243894;28;20029;-70
2023/06/07 02:29:32;;;;;;;24.25;9.63;;;;;;;14.56;100.00;101904.13;5247478;28;20036;-70
2023/06/07 02:32:04;;;;;;;23.80;11.32;;;;;;;14.55;100.00;101904.28;5248263;28;20024;-70
2023/06/07 02:34:34;;;;;;;24.75;9.68;;;;;;;14.53;100.00;101906.31;5248284;28;20021;-70
2023/06/07 02:37:05;;;;;;;22.25;10.50;;;;;;;14.49;100.00;101903.09;5248013;28;20485;-70
2023/06/07 02:39:35;;;;;;;26.15;10.88;;;;;;;14.44;100.00;101906.25;5248367;28;20606;-69
2023/06/07 02:42:06;;;;;;;23.13;11.23;;;;;;;14.39;100.00;101905.91;5248470;28;20024;-69
2023/06/07 02:44:36;;;;;;;24.38;11.20;;;;;;;14.35;100.00;101903.69;5248186;28;20032;-69
2023/06/07 02:47:07;;;;;;;21.17;10.32;;;;;;;14.36;100.00;101902.72;5247416;28;20016;-71
2023/06/07 02:49:37;;;;;;;20.45;9.15;;;;;;;14.32;100.00;101904.03;5230487;28;20035;-70
2023/06/07 02:52:10;;;;;;;20.75;10.25;;;;;;;14.29;100.00;101907.91;5248100;28;20370;-70
2023/06/07 02:54:41;;;;;;;24.15;10.02;;;;;;;14.24;100.00;101900.28;5248339;28;20020;-70
2023/06/07 02:57:11;;;;;;;20.85;9.43;;;;;;;14.28;100.00;101902.69;5247160;28;20073;-70
2023/06/07 02:59:41;;;;;;;22.40;10.85;;;;;;;14.23;100.00;101911.25;5247592;28;20111;-70
2023/06/07 03:02:12;;;;;;;18.25;9.88;;;;;;;14.18;100.00;101909.06;5248113;28;20020;-70
2023/06/07 03:04:43;;;;;;;28.40;10.50;;;;;;;14.16;100.00;101905.69;5247754;28;20695;-70
2023/06/07 03:07:14;;;;;;;24.02;10.88;;;;;;;14.13;100.00;101902.47;5247363;28;20024;-70
2023/06/07 03:09:46;;;;;;;24.02;10.48;;;;;;;14.11;100.00;101907.19;5247280;28;20040;-70
2023/06/07 03:12:16;;;;;;;18.05;9.52;;;;;;;14.10;100.00;101909.00;5247780;28;20029;-70
2023/06/07 03:14:47;;;;;;;25.42;10.02;;;;;;;14.08;100.00;101894.84;5247713;28;20504;-70
2023/06/07 03:17:17;;;;;;;27.23;11.65;;;;;;;14.06;100.00;101907.69;5229383;28;20408;-70
2023/06/07 03:19:48;;;;;;;22.60;9.63;;;;;;;14.01;100.00;101896.53;5247398;28;20025;-70
2023/06/07 03:22:21;;;;;;;31.58;11.77;;;;;;;13.99;100.00;101912.03;5233287;28;20108;-70
2023/06/07 03:24:53;;;;;;;22.70;10.73;;;;;;;13.98;100.00;101911.19;5242308;28;20029;-70
2023/06/07 03:27:24;;;;;;;22.80;10.55;;;;;;;13.97;100.00;101914.88;5226360;28;20070;-70
2023/06/07 03:29:55;;;;;;;22.45;10.80;;;;;;;13.95;100.00;101918.75;5246801;28;20055;-70
2023/06/07 03:32:25;;;;;;;23.50;10.70;;;;;;;13.94;100.00;101917.06;5247169;28;20115;-70
2023/06/07 03:34:56;;;;;;;22.83;10.40;;;;;;;13.94;100.00;101922.44;5247165;28;20031;-70
2023/06/07 03:37:26;;;;;;;23.73;10.70;;;;;;;13.93;100.00;101923.47;5246879;28;20042;-70
2023/06/07 03:39:56;;;;;;;22.38;11.00;;;;;;;13.93;100.00;101918.06;5246335;28;20107;-70
2023/06/07 03:42:27;;;;;;;25.08;9.90;;;;;;;13.94;100.00;101922.44;5247329;28;20021;-70
2023/06/07 03:44:57;;;;;;;20.40;9.77;;;;;;;13.91;100.00;101920.09;5247218;28;20118;-70
2023/06/07 03:47:28;;;;;;;19.25;10.07;;;;;;;13.92;100.00;101930.72;5228488;28;20051;-70
2023/06/07 03:49:58;;;;;;;22.50;10.43;;;;;;;13.89;100.00;101930.19;5247101;28;20474;-69
2023/06/07 03:52:29;;;;;;;22.45;10.10;;;;;;;13.86;100.00;101934.06;5246868;28;20021;-69
2023/06/07 03:54:59;;;;;;;45.70;11.48;;;;;;;13.80;100.00;101926.59;5247111;28;20074;-69
2023/06/07 03:57:30;;;;;;;21.38;10.45;;;;;;;13.78;100.00;101925.94;5246076;28;20113;-69
2023/06/07 04:00:05;;;;;;;21.80;10.90;;;;;;;13.76;100.00;101935.19;5246944;28;20032;-69
2023/06/07 04:02:35;;;;;;;24.23;10.73;;;;;;;13.72;100.00;101926.56;5247039;28;20024;-70
2023/06/07 04:05:06;;;;;;;24.98;11.02;;;;;;;13.68;100.00;101925.19;5246716;28;20028;-69
2023/06/07 04:07:36;;;;;;;26.50;11.48;;;;;;;13.70;100.00;101933.97;5246319;28;20021;-70
2023/06/07 04:10:07;;;;;;;24.27;10.70;;;;;;;13.68;100.00;101930.59;5246303;28;20032;-70
2023/06/07 04:12:37;;;;;;;24.92;10.73;;;;;;;13.68;100.00;101933.28;5246795;28;20029;-69
2023/06/07 04:15:08;;;;;;;23.48;10.27;;;;;;;13.70;100.00;101932.13;5228860;28;20037;-69
2023/06/07 04:17:39;;;;;;;20.92;10.25;;;;;;;13.71;100.00;101933.81;5246213;28;20103;-69
2023/06/07 04:20:10;;;;;;;17.35;10.10;;;;;;;13.71;100.00;101925.72;5245276;28;20074;-70
2023/06/07 04:22:42;;;;;;;22.33;10.77;;;;;;;13.77;100.00;101928.78;5231385;28;20029;-69
2023/06/07 04:25:16;;;;;;;21.92;10.68;;;;;;;13.78;100.00;101938.56;5246423;28;20123;-69
2023/06/07 04:27:48;;;;;;;23.33;10.90;;;;;;;13.79;100.00;101945.66;5245841;28;20473;-69
2023/06/07 04:30:18;;;;;;;26.65;11.43;;;;;;;13.79;100.00;101934.84;5246347;28;20028;-69
2023/06/07 04:32:49;;;;;;;23.42;10.60;;;;;;;13.81;100.00;101932.88;5236812;28;20049;-69
2023/06/07 04:35:20;;;;;;;27.90;10.38;;;;;;;13.85;100.00;101939.59;5227797;28;20025;-70
2023/06/07 04:37:51;;;;;;;31.10;11.65;;;;;;;13.91;100.00;101928.19;5245476;28;20093;-69
2023/06/07 04:40:23;;;;;;;28.30;11.30;;;;;;;13.96;100.00;101925.84;5245772;28;20024;-70
2023/06/07 04:43:04;;;;;;;23.45;11.25;;;;;;;14.01;100.00;101928.91;5245845;28;20024;-70
2023/06/07 04:45:39;;;;;;;27.38;10.40;;;;;;;14.10;100.00;101936.00;5245012;28;20044;-70
2023/06/07 04:51:03;;;;;;;26.35;11.82;;;;;;;14.16;100.00;101924.56;5245446;28;19908;-69
2023/06/07 04:53:36;;;;;;;22.58;11.00;;;;;;;14.24;100.00;101924.59;5245358;28;20116;-70
2023/06/07 04:56:06;;;;;;;27.33;10.93;;;;;;;14.29;100.00;101934.06;5210550;28;20115;-70
2023/06/07 04:58:39;;;;;;;21.55;10.50;;;;;;;14.31;100.00;101929.31;5231718;28;20159;-70
2023/06/07 05:01:10;;;;;;;25.70;11.80;;;;;;;14.30;100.00;101936.56;5245272;28;20112;-70
2023/06/07 05:03:42;;;;;;;23.75;10.93;;;;;;;14.30;100.00;101933.03;5245356;28;20035;-70
2023/06/07 05:06:12;;;;;;;25.20;11.00;;;;;;;14.32;100.00;101939.97;5244469;28;20112;-70
2023/06/07 05:08:43;;;;;;;33.10;11.77;;;;;;;14.37;100.00;101945.72;5245023;28;20032;-70
2023/06/07 05:11:13;;;;;;;24.58;11.98;;;;;;;14.43;100.00;101936.97;5245021;28;20033;-70
2023/06/07 05:13:46;;;;;;;27.08;11.52;;;;;;;14.49;100.00;101944.41;5245156;28;20499;-70
2023/06/07 05:16:16;;;;;;;21.65;11.65;;;;;;;14.55;100.00;101944.78;5244380;28;20024;-70
2023/06/07 05:18:48;;;;;;;24.58;10.65;;;;;;;14.64;100.00;101946.47;5236563;28;20020;-70
2023/06/07 05:21:18;;;;;;;22.20;10.60;;;;;;;14.74;100.00;101947.16;5231276;28;20098;-70
2023/06/07 05:23:49;;;;;;;28.52;12.13;;;;;;;14.80;100.00;101951.06;5227709;28;20463;-70
2023/06/07 05:26:22;;;;;;;23.25;11.48;;;;;;;14.87;100.00;101952.09;5240855;28;20043;-71
2023/06/07 05:28:52;;;;;;;27.70;11.98;;;;;;;14.94;100.00;101951.25;5233226;28;20670;-70
2023/06/07 05:31:23;;;;;;;24.40;10.82;;;;;;;15.14;100.00;101949.06;5229095;28;20029;-70
2023/06/07 05:33:53;;;;;;;25.30;10.15;;;;;;;15.20;100.00;101948.38;5244823;28;20387;-69
2023/06/07 05:36:24;;;;;;;20.15;10.25;;;;;;;15.25;100.00;101951.41;5244828;28;20081;-70
2023/06/07 05:38:54;;;;;;;19.98;10.20;;;;;;;15.29;100.00;101943.81;5244758;28;20107;-70
2023/06/07 05:41:25;;;;;;;25.55;11.00;;;;;;;15.39;100.00;101949.88;5245045;28;20031;-70
2023/06/07 05:43:55;;;;;;;25.42;11.32;;;;;;;15.50;100.00;101946.81;5244470;28;20024;-70
2023/06/07 05:46:26;;;;;;;21.25;10.98;;;;;;;15.67;100.00;101946.81;5244102;28;20111;-70
2023/06/07 05:48:56;;;;;;;26.25;11.00;;;;;;;15.74;100.00;101961.34;5246091;28;20048;-70
2023/06/07 05:51:27;;;;;;;24.55;10.55;;;;;;;15.82;100.00;101957.78;5244474;28;20090;-70
2023/06/07 05:53:57;;;;;;;23.55;11.05;;;;;;;15.93;100.00;101957.41;5230769;28;20488;-70
2023/06/07 05:56:28;;;;;;;29.15;11.10;;;;;;;15.96;100.00;101965.16;5243688;28;20036;-70
2023/06/07 05:58:58;;;;;;;23.70;11.45;;;;;;;16.07;100.00;101964.78;5244201;28;20067;-70
2023/06/07 06:01:29;;;;;;;21.92;11.18;;;;;;;16.35;100.00;101964.31;5244384;28;20482;-70
2023/06/07 06:03:59;;;;;;;28.65;11.10;;;;;;;17.03;100.00;101959.00;5243621;28;20052;-71
2023/06/07 06:06:30;;;;;;;26.17;11.02;;;;;;;17.81;100.00;101963.16;5243635;28;20024;-70
2023/06/07 06:09:00;;;;;;;20.35;10.23;;;;;;;18.71;100.00;101963.91;5243876;28;20508;-71
2023/06/07 06:11:31;;;;;;;20.75;10.77;;;;;;;19.28;100.00;101960.28;5244025;28;20497;-70
2023/06/07 06:14:01;;;;;;;23.90;10.02;;;;;;;19.97;100.00;101962.22;5244260;28;20078;-70
2023/06/07 06:16:32;;;;;;;22.38;9.35;;;;;;;20.15;100.00;101968.81;5243351;28;20023;-70
2023/06/07 06:19:02;;;;;;;21.17;10.15;;;;;;;20.42;100.00;101969.75;5244596;28;20036;-70
2023/06/07 06:21:33;;;;;;;17.27;10.02;;;;;;;20.86;100.00;101970.34;5235231;28;20017;-71
2023/06/07 06:24:04;;;;;;;18.10;10.05;;;;;;;21.27;100.00;101967.44;5236779;28;20111;-70
2023/06/07 06:26:34;;;;;;;23.77;10.93;;;;;;;21.26;100.00;101975.84;5230014;28;20169;-71
2023/06/07 06:29:05;;;;;;;22.27;10.35;;;;;;;21.27;100.00;101978.34;5244267;28;20031;-71
2023/06/07 06:31:35;;;;;;;21.35;9.88;;;;;;;21.31;100.00;101974.19;5243895;28;20158;-71
2023/06/07 06:34:07;;;;;;;24.20;9.75;;;;;;;21.13;100.00;101979.38;5243859;28;20113;-71
2023/06/07 06:36:37;;;;;;;23.58;9.95;;;;;;;21.16;100.00;101979.81;5243493;28;20028;-71
2023/06/07 06:39:08;;;;;;;19.17;10.10;;;;;;;21.52;100.00;101984.03;5243971;28;20043;-71
2023/06/07 06:41:38;;;;;;;18.58;9.70;;;;;;;21.77;100.00;101988.84;5243996;28;20144;-71
2023/06/07 06:44:09;;;;;;;21.80;10.10;;;;;;;21.91;100.00;101979.56;5243783;28;20016;-71
2023/06/07 06:46:39;;;;;;;23.38;10.20;;;;;;;22.36;100.00;101987.84;5243349;28;20029;-71
2023/06/07 06:49:10;;;;;;;20.80;9.70;;;;;;;22.03;100.00;101988.78;5243927;28;20069;-71
2023/06/07 06:51:40;;;;;;;19.75;10.07;;;;;;;21.73;100.00;101989.25;5243952;28;20032;-71
2023/06/07 06:54:12;;;;;;;22.27;10.65;;;;;;;21.52;100.00;101985.94;5238079;28;20109;-71
2023/06/07 06:56:43;;;;;;;17.70;9.43;;;;;;;21.96;100.00;101996.16;5235455;28;20025;-71
2023/06/07 06:59:13;;;;;;;18.35;9.65;;;;;;;21.90;100.00;101999.75;5236798;28;20029;-71
2023/06/07 07:01:46;;;;;;;22.27;9.55;;;;;;;21.21;100.00;101998.28;5237417;28;20020;-71
2023/06/07 07:04:17;;;;;;;18.67;9.85;;;;;;;20.96;100.00;101992.59;5243972;28;20109;-71
2023/06/07 07:06:47;;;;;;;23.70;10.95;;;;;;;20.82;100.00;102002.63;5243156;28;20500;-71
2023/06/07 07:09:18;;;;;;;21.10;10.50;;;;;;;20.42;100.00;101998.91;5243510;28;20035;-71
2023/06/07 07:11:48;;;;;;;19.88;11.10;;;;;;;20.07;100.00;101996.22;5243582;28;20036;-71
2023/06/07 07:14:19;;;;;;;22.65;10.93;;;;;;;19.79;100.00;102006.34;5244654;28;20029;-70
2023/06/07 07:16:49;;;;;;;22.00;10.02;;;;;;;19.52;100.00;102003.34;5247051;28;20478;-71
2023/06/07 07:19:20;;;;;;;23.73;10.93;;;;;;;19.24;100.00;102003.34;5247695;28;20029;-71
2023/06/07 07:21:51;;;;;;;29.35;11.27;;;;;;;19.23;100.00;101996.22;5236866;28;20024;-71
2023/06/07 07:24:22;;;;;;;24.10;10.60;;;;;;;19.42;100.00;101995.53;5228076;28;20037;-70
2023/06/07 07:26:52;;;;;;;22.40;10.77;;;;;;;19.53;100.00;101999.63;5238673;28;20020;-71
2023/06/07 07:29:23;;;;;;;25.10;11.52;;;;;;;19.65;100.00;102003.50;5242468;28;20078;-71
2023/06/07 07:31:54;;;;;;;25.80;12.02;;;;;;;20.02;100.00;102006.88;5247689;28;20028;-71
2023/06/07 07:34:25;;;;;;;23.05;11.13;;;;;;;20.29;100.00;102015.22;5233496;28;20124;-71
2023/06/07 07:36:57;;;;;;;23.42;11.02;;;;;;;20.72;100.00;102009.53;5246699;28;20043;-70
2023/06/07 07:39:28;;;;;;;19.70;9.60;;;;;;;21.26;100.00;102009.41;5241832;28;20086;-71
2023/06/07 07:42:00;;;;;;;21.20;10.20;;;;;;;21.68;100.00;101999.97;5239506;28;20592;-71
2023/06/07 07:44:30;;;;;;;23.27;10.43;;;;;;;22.21;100.00;102008.09;5233482;28;20020;-71
2023/06/07 07:47:01;;;;;;;18.27;10.13;;;;;;;23.00;100.00;101995.13;5245447;28;20083;-71
2023/06/07 07:49:31;;;;;;;19.58;9.82;;;;;;;23.53;100.00;102000.16;5234815;28;20052;-71
2023/06/07 07:52:02;;;;;;;22.58;9.55;;;;;;;24.41;100.00;102001.81;5246903;28;20020;-71
2023/06/07 07:54:32;;;;;;;15.57;8.40;;;;;;;24.94;100.00;102004.63;5246946;28;20098;-71
2023/06/07 07:57:04;;;;;;;22.10;9.88;;;;;;;24.57;100.00;102005.81;5246075;28;20017;-71
2023/06/07 07:59:34;;;;;;;20.80;9.40;;;;;;;24.62;100.00;101994.97;5246622;28;20110;-72
2023/06/07 08:02:05;;;;;;;17.60;10.07;;;;;;;24.99;100.00;102006.69;5246760;28;20115;-71
2023/06/07 08:04:35;;;;;;;17.55;9.30;;;;;;;24.96;100.00;102008.00;5246909;28;20040;-71
2023/06/07 08:07:06;;;;;;;20.38;9.70;;;;;;;24.47;100.00;102009.94;5246123;28;20082;-71
2023/06/07 08:09:36;;;;;;;26.27;10.48;;;;;;;23.89;100.00;102017.75;5246409;28;20032;-71
2023/06/07 08:12:08;;;;;;;23.63;10.35;;;;;;;23.53;100.00;102011.09;5239200;28;20083;-71
2023/06/07 08:14:38;;;;;;;22.20;10.05;;;;;;;23.24;100.00;102012.59;5240761;28;20031;-71
2023/06/07 08:17:09;;;;;;;19.90;10.48;;;;;;;22.86;100.00;102012.63;5245815;28;20478;-71
2023/06/07 08:19:39;;;;;;;21.00;10.18;;;;;;;22.92;100.00;102012.63;5246577;28;20025;-71
2023/06/07 08:22:10;;;;;;;21.88;9.85;;;;;;;22.94;100.00;102010.53;5234171;28;20024;-71
2023/06/07 08:24:40;;;;;;;20.05;9.65;;;;;;;22.79;100.00;102014.56;5229084;28;20026;-71
2023/06/07 08:27:11;;;;;;;21.55;10.48;;;;;;;22.69;100.00;102015.91;5245217;28;20017;-71
2023/06/07 08:29:41;;;;;;;20.20;10.02;;;;;;;22.57;100.00;102011.31;5246208;28;20040;-71
2023/06/07 08:32:12;;;;;;;22.10;10.40;;;;;;;22.87;100.00;102009.66;5246498;28;20103;-71
2023/06/07 08:34:42;;;;;;;24.90;10.27;;;;;;;23.69;100.00;102004.25;5246003;28;20095;-71
2023/06/07 08:37:13;;;;;;;23.10;9.50;;;;;;;24.37;100.00;102006.91;5245525;28;20020;-71
2023/06/07 08:39:43;;;;;;;23.75;9.75;;;;;;;25.15;100.00;101997.81;5246278;28;20028;-71
2023/06/07 08:42:14;;;;;;;18.77;9.90;;;;;;;25.68;100.00;101998.81;5246106;28;20020;-71
2023/06/07 08:44:45;;;;;;;18.65;9.35;;;;;;;25.92;100.00;102000.50;5246181;28;20371;-71
2023/06/07 08:47:17;;;;;;;21.48;10.30;;;;;;;26.07;100.00;102000.00;5244582;28;20066;-71
2023/06/07 08:49:53;;;;;;;29.33;9.80;;;;;;;25.93;100.00;101993.94;5246126;28;20644;-71
2023/06/07 08:52:24;;;;;;;19.83;9.65;;;;;;;26.15;100.00;102002.38;5245910;28;20066;-71
2023/06/07 08:54:58;;;;;;;20.10;9.07;;;;;;;26.53;100.00;102001.81;5245854;28;20024;-71
2023/06/07 08:57:31;;;;;;;17.13;9.40;;;;;;;26.41;100.00;102001.00;5244765;28;20024;-71
2023/06/07 09:00:02;;;;;;;16.83;9.50;;;;;;;26.41;100.00;102002.88;5245494;28;20340;-72
2023/06/07 09:02:33;;;;;;;22.27;10.02;;;;;;;26.54;100.00;102008.16;5245641;28;20100;-71
2023/06/07 09:05:05;;;;;;;21.52;9.80;;;;;;;26.79;100.00;102005.06;5245492;28;20541;-72
2023/06/07 09:07:36;;;;;;;23.40;9.35;;;;;;;26.95;100.00;102004.25;5244937;28;20101;-72
2023/06/07 09:10:08;;;;;;;16.30;9.10;;;;;;;27.15;100.00;102003.81;5245031;28;20028;-72
2023/06/07 09:12:39;;;;;;;15.27;9.05;;;;;;;27.01;100.00;102006.03;5245284;28;20048;-71
2023/06/07 09:15:17;;;;;;;22.13;9.40;;;;;;;26.95;100.00;102007.00;5245421;28;20691;-71
2023/06/07 09:17:51;;;;;;;20.80;10.45;;;;;;;26.99;100.00;101999.09;5244703;28;20036;-71
2023/06/07 09:20:23;;;;;;;18.00;8.83;;;;;;;27.29;100.00;101990.53;5242310;28;20041;-71
2023/06/07 09:23:14;;;;;;;27.88;10.57;;;;;;;26.92;100.00;102002.00;5232160;28;20753;-72
2023/06/07 09:25:53;;;;;;;19.30;9.07;;;;;;;26.93;100.00;102002.84;5244630;28;20120;-72
2023/06/07 09:28:23;;;;;;;21.80;9.82;;;;;;;26.73;100.00;101992.28;5245245;28;20047;-71
2023/06/07 09:30:56;;;;;;;16.55;9.38;;;;;;;26.82;100.00;101993.56;5244574;28;20459;-72
2023/06/07 09:33:46;;;;;;;22.83;10.32;;;;;;;26.95;100.00;101995.16;5245125;28;20111;-72
2023/06/07 09:36:17;;;;;;;14.85;9.88;;;;;;;27.02;100.00;101985.66;5244230;28;20024;-72
2023/06/07 09:38:47;;;;;;;20.95;10.85;;;;;;;26.99;100.00;101985.31;5244367;28;20497;-72
2023/06/07 09:41:18;;;;;;;20.35;9.45;;;;;;;26.90;100.00;101987.63;5244530;28;20036;-72
2023/06/07 09:43:50;;;;;;;17.83;9.30;;;;;;;26.79;100.00;101983.88;5244939;28;20048;-72
2023/06/07 09:46:21;;;;;;;17.27;9.27;;;;;;;26.95;100.00;101981.38;5244278;28;20024;-72
2023/06/07 09:48:53;;;;;;;17.30;9.50;;;;;;;27.26;100.00;101980.00;5244501;28;20023;-72
2023/06/07 09:51:27;;;;;;;18.92;9.32;;;;;;;27.39;100.00;101976.09;5244856;28;20052;-72
2023/06/07 09:54:01;;;;;;;15.30;9.50;;;;;;;27.78;100.00;101980.59;5244257;28;20500;-72
2023/06/07 09:56:32;;;;;;;19.40;9.45;;;;;;;27.84;100.00;101967.72;5243871;28;20024;-72
2023/06/07 09:59:16;;;;;;;19.58;9.77;;;;;;;27.85;100.00;101969.38;5244662;28;20382;-72
2023/06/07 10:01:47;;;;;;;17.50;9.38;;;;;;;27.95;100.00;101966.75;5244548;28;20085;-72
2023/06/07 10:04:17;;;;;;;18.00;9.13;;;;;;;28.12;100.00;101973.06;5244386;28;20020;-72
2023/06/07 10:06:52;;;;;;;17.20;9.35;;;;;;;28.13;100.00;101971.13;5243754;28;20055;-72
2023/06/07 10:09:23;;;;;;;16.33;9.63;;;;;;;28.03;100.00;101973.75;5244600;28;20020;-72
2023/06/07 10:11:55;;;;;;;16.08;9.38;;;;;;;27.81;100.00;101966.31;5244594;28;20668;-72
2023/06/07 10:14:29;;;;;;;27.35;10.45;;;;;;;27.89;100.00;101967.78;5244715;28;20073;-72
2023/06/07 10:17:21;;;;;;;30.23;10.85;;;;;;;28.00;100.00;101957.72;5238259;28;20033;-72
2023/06/07 10:19:59;;;;;;;16.33;8.40;;;;;;;28.28;100.00;101957.50;5225893;28;20040;-72
2023/06/07 10:22:34;;;;;;;18.10;9.15;;;;;;;28.47;100.00;101958.03;5225458;28;20158;-72
2023/06/07 10:25:27;;;;;;;17.38;9.35;;;;;;;28.30;100.00;101965.53;5240059;28;20021;-72
2023/06/07 10:28:12;;;;;;;21.90;9.55;;;;;;;28.41;100.00;101958.22;5242596;28;20051;-72
2023/06/07 10:30:52;;;;;;;19.17;9.05;;;;;;;28.51;99.53;101950.88;5242553;28;20024;-72
2023/06/07 10:33:25;;;;;;;18.17;9.35;;;;;;;28.00;100.00;101955.78;5242619;28;20020;-72
2023/06/07 10:35:56;;;;;;;24.50;10.15;;;;;;;27.44;100.00;101957.72;5242442;28;20027;-72
2023/06/07 10:38:29;;;;;;;15.85;10.27;;;;;;;27.09;100.00;101946.97;5230626;28;20029;-72
2023/06/07 10:41:03;;;;;;;18.88;9.90;;;;;;;27.03;100.00;101943.28;5240028;28;20028;-72
2023/06/07 10:43:34;;;;;;;19.83;10.57;;;;;;;26.93;100.00;101939.50;5242534;28;20135;-72
2023/06/07 10:49:45;;;;;;;17.48;9.55;;;;;;;27.41;100.00;101938.09;5236879;28;20103;-72
2023/06/07 10:52:15;;;;;;;17.23;9.88;;;;;;;27.69;100.00;101942.66;5240421;28;20094;-72
2023/06/07 10:54:46;;;;;;;18.30;9.82;;;;;;;27.80;100.00;101944.47;5246470;28;20060;-72
2023/06/07 10:57:37;;;;;;;24.25;11.63;;;;;;;27.58;100.00;101953.53;5245562;28;20066;-72
2023/06/07 11:00:45;;;;;;;20.08;10.70;;;;;;;27.14;100.00;101949.81;5243997;28;20025;-72
2023/06/07 11:03:49;;;;;;;20.58;10.38;;;;;;;26.73;100.00;101951.84;5245875;28;20021;-72
2023/06/07 11:06:20;;;;;;;17.27;10.57;;;;;;;26.44;100.00;101945.50;5239071;28;20033;-72
2023/06/07 11:09:33;;;;;;;18.65;11.20;;;;;;;26.33;100.00;101940.84;5243758;28;20024;-72
2023/06/07 11:12:05;;;;;;;17.70;11.25;;;;;;;26.14;100.00;101939.38;5245407;28;20557;-72
2023/06/07 11:14:35;;;;;;;21.73;11.88;;;;;;;25.82;100.00;101948.06;5239129;28;20074;-72
2023/06/07 11:17:06;;;;;;;18.80;10.45;;;;;;;25.51;100.00;101941.00;5244802;28;20020;-72
2023/06/07 11:19:55;;;;;;;23.38;10.77;;;;;;;25.07;100.00;101951.47;5245084;28;20032;-72
2023/06/07 11:22:25;;;;;;;25.52;10.93;;;;;;;24.76;100.00;101936.94;5234515;28;20019;-72
2023/06/07 11:25:12;;;;;;;23.63;10.30;;;;;;;24.97;100.00;101943.78;5237036;28;20033;-72
2023/06/07 11:27:43;;;;;;;20.50;10.63;;;;;;;25.61;100.00;101944.00;5244213;28;20027;-72
2023/06/07 11:30:13;;;;;;;21.67;10.50;;;;;;;26.33;100.00;101938.09;5244830;28;20405;-72
2023/06/07 11:32:44;;;;;;;29.17;11.75;;;;;;;26.87;100.00;101938.59;5245292;28;20020;-72
2023/06/07 11:35:15;;;;;;;22.58;11.18;;;;;;;27.30;100.00;101939.88;5243936;28;20031;-72